Time;durP1;ratioP1;P1;durP2;ratioP2;P2;SDS_P1;SDS_P2;PMS_P1;PMS_P2;Temp;Humidity;BMP_temperature;BMP_pressure;BME280_temperature;BME280_humidity;BME280_pressure;Samples;Min_cycle;Max_cycle;Signal;HPM_P1;HPM_P2
2023/08/28 00:00:17;;;;;;;3.70;2.20;;;24.80;67.80;;;;;;222324;1260;22661;-54
2023/08/28 00:05:40;;;;;;;2.70;2.20;;;24.90;67.70;;;;;;222415;1260;22530;-55
2023/08/28 00:10:43;;;;;;;3.10;2.80;;;24.90;67.50;;;;;;222793;1263;22626;-56
2023/08/28 00:15:55;;;;;;;2.90;2.30;;;24.90;67.50;;;;;;218467;1254;5431462;-54
2023/08/28 00:21:00;;;;;;;3.20;2.20;;;24.90;67.70;;;;;;222296;1261;22532;-55
2023/08/28 00:26:09;;;;;;;2.40;2.20;;;24.80;67.60;;;;;;222422;1263;22511;-56
2023/08/28 00:31:21;;;;;;;3.70;1.80;;;24.80;68.20;;;;;;222147;1266;25492;-55
2023/08/28 00:36:24;;;;;;;2.60;2.00;;;24.90;67.70;;;;;;222543;1266;24215;-55
2023/08/28 00:41:38;;;;;;;3.90;2.20;;;24.80;67.40;;;;;;222530;1268;23914;-58
2023/08/28 00:46:41;;;;;;;3.00;1.90;;;24.80;67.50;;;;;;222408;1267;25274;-57
2023/08/28 00:51:47;;;;;;;2.60;2.40;;;24.80;67.20;;;;;;222407;1267;24210;-56
2023/08/28 00:56:55;;;;;;;2.90;1.90;;;24.90;67.50;;;;;;222752;1266;24363;-55
2023/08/28 01:01:57;;;;;;;2.30;2.10;;;24.90;67.00;;;;;;222444;1264;24225;-53
2023/08/28 01:07:28;;;;;;;2.40;2.20;;;24.90;66.90;;;;;;224063;1267;22532;-54
2023/08/28 01:12:34;;;;;;;2.10;2.00;;;24.90;66.70;;;;;;222466;1268;22534;-54
2023/08/28 01:17:41;;;;;;;2.10;1.90;;;25.00;66.80;;;;;;223116;1261;23235;-53
2023/08/28 01:23:07;;;;;;;2.70;2.40;;;25.00;67.20;;;;;;222404;1266;25586;-55
2023/08/28 01:28:13;;;;;;;1.90;1.80;;;25.00;66.80;;;;;;222596;1266;23918;-56
2023/08/28 01:33:25;;;;;;;3.80;1.80;;;24.90;66.80;;;;;;222588;1268;24055;-55
2023/08/28 01:38:36;;;;;;;2.40;1.90;;;24.90;67.10;;;;;;222531;1266;23897;-58
2023/08/28 01:43:45;;;;;;;1.80;1.70;;;24.90;66.90;;;;;;222316;1264;22642;-57
2023/08/28 01:48:53;;;;;;;3.80;2.20;;;24.90;68.20;;;;;;222824;1259;23134;-56
2023/08/28 01:53:56;;;;;;;4.30;1.80;;;24.90;67.10;;;;;;222632;1266;22529;-54
2023/08/28 01:58:59;;;;;;;4.50;2.10;;;24.90;67.30;;;;;;222050;1263;23909;-56
2023/08/28 02:04:05;;;;;;;2.40;1.90;;;24.80;66.70;;;;;;222588;1266;23871;-55
2023/08/28 02:09:08;;;;;;;2.40;2.00;;;24.80;66.60;;;;;;222918;1262;22521;-53
2023/08/28 02:14:11;;;;;;;8.10;2.10;;;24.90;66.70;;;;;;222891;1266;22546;-55
2023/08/28 02:19:14;;;;;;;3.60;2.10;;;24.90;66.50;;;;;;222599;1269;22521;-55
2023/08/28 02:24:18;;;;;;;1.60;1.50;;;24.80;66.90;;;;;;222796;1264;22564;-54
2023/08/28 02:29:24;;;;;;;2.60;2.00;;;24.90;67.10;;;;;;222078;1267;22518;-54
2023/08/28 02:34:29;;;;;;;7.30;1.80;;;24.90;66.20;;;;;;222410;1268;23102;-57
2023/08/28 02:39:35;;;;;;;2.40;1.70;;;24.80;66.00;;;;;;222224;1266;23030;-59
2023/08/28 02:44:38;;;;;;;3.40;1.80;;;24.80;65.80;;;;;;222576;1266;22656;-55
2023/08/28 02:49:44;;;;;;;3.90;2.00;;;24.80;65.80;;;;;;222723;1269;24072;-56
2023/08/28 02:54:47;;;;;;;1.70;1.60;;;24.80;65.90;;;;;;222453;1268;22592;-55
2023/08/28 02:59:50;;;;;;;7.80;1.70;;;24.80;66.10;;;;;;222837;1261;24701;-53
2023/08/28 03:04:52;;;;;;;2.30;1.90;;;24.80;65.70;;;;;;222584;1269;25249;-53
2023/08/28 03:09:55;;;;;;;1.80;1.50;;;24.80;65.90;;;;;;222716;1268;23889;-50
2023/08/28 03:14:58;;;;;;;2.50;1.60;;;24.90;66.30;;;;;;223439;1268;22649;-54
2023/08/28 03:20:00;;;;;;;5.40;1.60;;;24.90;65.30;;;;;;222647;1268;22528;-51
2023/08/28 03:25:04;;;;;;;3.60;1.60;;;24.90;65.30;;;;;;223063;1268;22525;-54
2023/08/28 03:30:09;;;;;;;2.40;1.50;;;24.90;66.00;;;;;;222781;1266;24258;-53
2023/08/28 03:35:12;;;;;;;3.30;1.70;;;24.80;65.50;;;;;;223212;1263;24190;-50
2023/08/28 03:40:16;;;;;;;2.00;1.60;;;24.90;65.50;;;;;;222695;1260;23902;-51
2023/08/28 03:45:19;;;;;;;1.70;1.60;;;24.80;65.50;;;;;;222990;1263;22579;-54
2023/08/28 03:50:22;;;;;;;4.40;1.70;;;24.90;65.40;;;;;;224723;1269;22721;-53
2023/08/28 03:55:29;;;;;;;5.90;1.60;;;24.90;65.70;;;;;;226658;1266;22529;-52
2023/08/28 04:00:32;;;;;;;4.90;1.50;;;24.90;65.00;;;;;;226743;1261;22517;-55
2023/08/28 04:05:38;;;;;;;2.80;1.40;;;25.10;64.80;;;;;;225727;1263;24194;-56
2023/08/28 04:10:42;;;;;;;2.90;1.70;;;25.00;64.60;;;;;;223256;1268;26504;-55
2023/08/28 04:15:48;;;;;;;3.10;1.50;;;25.00;64.90;;;;;;222892;1268;24076;-56
2023/08/28 04:21:00;;;;;;;2.70;1.50;;;24.90;64.90;;;;;;222661;1268;22857;-55
2023/08/28 04:26:03;;;;;;;5.40;1.70;;;24.90;65.30;;;;;;222936;1257;22745;-54
2023/08/28 04:31:09;;;;;;;4.20;1.50;;;24.90;65.00;;;;;;222976;1267;22566;-56
2023/08/28 04:36:12;;;;;;;3.40;1.50;;;24.80;65.00;;;;;;222714;1266;22517;-55
2023/08/28 04:41:24;;;;;;;4.60;1.40;;;24.80;65.00;;;;;;222466;1266;24283;-53
2023/08/28 04:46:28;;;;;;;2.20;1.60;;;24.80;65.00;;;;;;222782;1267;22706;-53
2023/08/28 04:51:42;;;;;;;10.40;1.70;;;24.80;65.30;;;;;;222850;1268;22525;-58
2023/08/28 04:56:45;;;;;;;5.10;1.40;;;24.80;65.70;;;;;;222489;1261;24250;-56
2023/08/28 05:01:48;;;;;;;2.90;1.40;;;24.90;65.50;;;;;;222976;1254;22630;-55
2023/08/28 05:07:13;;;;;;;2.40;1.70;;;24.80;65.10;;;;;;222579;1266;22571;-58
2023/08/28 05:12:16;;;;;;;3.90;2.10;;;24.90;65.30;;;;;;222340;1261;22620;-55
2023/08/28 05:17:19;;;;;;;2.00;1.40;;;24.90;64.90;;;;;;226112;1268;22752;-54
2023/08/28 05:22:21;;;;;;;2.10;1.50;;;24.90;64.50;;;;;;223429;1260;22526;-56
2023/08/28 05:27:24;;;;;;;6.40;1.60;;;24.90;64.40;;;;;;222320;1264;22517;-54
2023/08/28 05:32:28;;;;;;;2.30;1.40;;;24.90;64.80;;;;;;222400;1260;22575;-55
2023/08/28 05:37:30;;;;;;;4.40;1.60;;;24.90;64.90;;;;;;222721;1269;23753;-56
2023/08/28 05:42:34;;;;;;;2.00;1.80;;;24.80;64.80;;;;;;222694;1268;22578;-57
2023/08/28 05:47:38;;;;;;;3.00;1.90;;;24.80;65.20;;;;;;222534;1264;22732;-55
2023/08/28 05:52:41;;;;;;;2.00;1.60;;;24.80;64.80;;;;;;222457;1265;22515;-58
2023/08/28 05:57:47;;;;;;;2.70;2.00;;;24.70;64.80;;;;;;222540;1264;22528;-56
2023/08/28 06:02:49;;;;;;;2.20;1.40;;;24.70;64.70;;;;;;222594;1261;22526;-56
2023/08/28 06:07:52;;;;;;;1.90;1.60;;;24.70;64.70;;;;;;222555;1264;25277;-55
2023/08/28 06:12:58;;;;;;;3.40;1.60;;;24.80;64.80;;;;;;222445;1260;22639;-58
2023/08/28 06:18:04;;;;;;;3.10;1.50;;;24.70;64.00;;;;;;222462;1268;22527;-55
2023/08/28 06:23:07;;;;;;;2.70;1.60;;;24.70;64.70;;;;;;222653;1263;22546;-56
2023/08/28 06:28:10;;;;;;;3.40;1.70;;;24.70;63.90;;;;;;222086;1267;23155;-56
2023/08/28 06:33:13;;;;;;;4.10;1.70;;;24.70;64.00;;;;;;222161;1260;24193;-56
2023/08/28 06:38:16;;;;;;;4.00;1.40;;;24.70;64.50;;;;;;223740;1267;22517;-57
2023/08/28 06:43:19;;;;;;;3.90;1.90;;;24.80;64.00;;;;;;222020;1260;24228;-57
2023/08/28 06:48:22;;;;;;;2.00;1.50;;;24.70;63.80;;;;;;222355;1268;22986;-56
2023/08/28 06:53:27;;;;;;;2.70;1.50;;;24.80;64.40;;;;;;222535;1267;22534;-53
2023/08/28 06:58:32;;;;;;;1.50;1.40;;;24.70;64.20;;;;;;222178;1263;24193;-58
2023/08/28 07:03:43;;;;;;;2.40;1.90;;;24.70;63.40;;;;;;222218;1264;25564;-57
2023/08/28 07:08:52;;;;;;;2.50;1.90;;;24.60;63.00;;;;;;222333;1267;22598;-58
2023/08/28 07:13:55;;;;;;;2.60;1.70;;;24.50;63.20;;;;;;222499;1264;22511;-57
2023/08/28 07:18:58;;;;;;;2.40;1.70;;;24.50;62.80;;;;;;222105;1266;22507;-58
2023/08/28 07:24:01;;;;;;;7.00;1.60;;;24.50;62.40;;;;;;222289;1268;24749;-57
2023/08/28 07:29:04;;;;;;;8.60;1.60;;;24.30;63.20;;;;;;222187;1261;22602;-56
2023/08/28 07:34:07;;;;;;;3.30;1.70;;;24.10;63.60;;;;;;222421;1257;23230;-57
2023/08/28 07:39:09;;;;;;;4.20;1.70;;;24.10;64.00;;;;;;221970;1266;24865;-57
2023/08/28 07:44:13;;;;;;;1.90;1.40;;;24.00;64.10;;;;;;222392;1266;22539;-53
2023/08/28 07:49:16;;;;;;;1.90;1.60;;;24.10;63.80;;;;;;222308;1260;22650;-57
2023/08/28 07:54:18;;;;;;;1.90;1.80;;;24.30;63.70;;;;;;222306;1264;25268;-56
2023/08/28 07:59:24;;;;;;;7.70;3.00;;;24.40;63.80;;;;;;222155;1266;22507;-55
2023/08/28 08:04:27;;;;;;;5.30;1.70;;;24.00;64.60;;;;;;222369;1256;22563;-56
2023/08/28 08:09:31;;;;;;;4.10;1.80;;;23.70;65.10;;;;;;222290;1266;23946;-55
2023/08/28 08:14:36;;;;;;;2.80;1.60;;;23.60;65.50;;;;;;222195;1262;26209;-54
2023/08/28 08:19:39;;;;;;;4.80;2.00;;;23.60;65.70;;;;;;222319;1250;22559;-57
2023/08/28 08:24:41;;;;;;;3.80;2.00;;;23.60;65.80;;;;;;222219;1260;22550;-56
2023/08/28 08:29:48;;;;;;;5.60;2.00;;;23.50;66.10;;;;;;222222;1260;23473;-58
2023/08/28 08:34:51;;;;;;;2.70;1.90;;;23.30;65.60;;;;;;222786;1267;23000;-52
2023/08/28 08:40:01;;;;;;;5.10;1.70;;;23.30;65.90;;;;;;222267;1267;22584;-56
2023/08/28 08:45:09;;;;;;;6.50;2.30;;;23.30;66.10;;;;;;222148;1268;24189;-55
2023/08/28 08:50:18;;;;;;;3.20;2.00;;;23.20;65.90;;;;;;222279;1259;25291;-53
2023/08/28 08:55:41;;;;;;;4.80;1.80;;;23.30;66.20;;;;;;222207;1268;22636;-56
2023/08/28 09:00:44;;;;;;;2.80;1.80;;;23.50;65.90;;;;;;222211;1261;22673;-54
2023/08/28 09:05:49;;;;;;;3.00;2.00;;;23.50;66.10;;;;;;222381;1260;22566;-57
2023/08/28 09:10:59;;;;;;;2.70;2.20;;;23.40;66.90;;;;;;222433;1267;22606;-56
2023/08/28 09:16:03;;;;;;;2.90;2.20;;;23.30;66.60;;;;;;222748;1263;24260;-54
2023/08/28 09:21:08;;;;;;;4.40;2.30;;;23.30;66.70;;;;;;222339;1253;23889;-64
2023/08/28 09:26:13;;;;;;;4.90;2.20;;;23.40;66.50;;;;;;222135;1260;22583;-62
2023/08/28 09:31:28;;;;;;;5.60;2.60;;;23.40;66.60;;;;;;222191;1261;22566;-63
2023/08/28 09:36:38;;;;;;;4.70;2.20;;;23.50;66.30;;;;;;222676;1261;22521;-59
2023/08/28 09:41:49;;;;;;;3.00;2.60;;;23.60;65.80;;;;;;222384;1263;25251;-62
2023/08/28 09:46:56;;;;;;;2.80;2.50;;;23.60;65.80;;;;;;222474;1262;25325;-63
2023/08/28 09:52:01;;;;;;;3.40;2.70;;;23.50;66.30;;;;;;222380;1260;25341;-61
2023/08/28 09:57:15;;;;;;;2.60;2.40;;;23.50;66.00;;;;;;222232;1254;24237;-62
2023/08/28 10:02:22;;;;;;;3.10;2.40;;;23.60;66.40;;;;;;222648;1261;22520;-61
2023/08/28 10:07:29;;;;;;;9.40;3.00;;;23.80;66.10;;;;;;222484;1266;22514;-61
2023/08/28 10:12:35;;;;;;;5.40;2.80;;;23.80;67.90;;;;;;222379;1244;22576;-61
2023/08/28 10:17:40;;;;;;;5.20;2.50;;;24.10;65.60;;;;;;222413;1253;22523;-61
2023/08/28 10:22:46;;;;;;;3.30;2.40;;;24.10;64.60;;;;;;222397;1263;25293;-62
2023/08/28 10:27:49;;;;;;;5.90;2.90;;;24.10;64.50;;;;;;223069;1263;24226;-61
2023/08/28 10:32:55;;;;;;;3.90;2.50;;;24.10;64.40;;;;;;224016;1263;25402;-62
2023/08/28 10:37:59;;;;;;;5.30;2.20;;;24.10;64.20;;;;;;223242;1263;22532;-60
2023/08/28 10:43:04;;;;;;;7.20;2.50;;;24.20;63.80;;;;;;222732;1263;22761;-57
2023/08/28 10:48:07;;;;;;;4.30;2.10;;;24.20;63.90;;;;;;222669;1263;22525;-62
2023/08/28 10:53:14;;;;;;;2.60;2.20;;;24.40;64.20;;;;;;222393;1263;23023;-65
2023/08/28 10:58:17;;;;;;;5.90;2.40;;;24.40;63.50;;;;;;222648;1263;22520;-56
2023/08/28 11:03:56;;;;;;;4.10;1.90;;;24.30;64.00;;;;;;222648;1254;22845;-57
2023/08/28 11:09:31;;;;;;;3.80;2.10;;;24.40;63.50;;;;;;222913;1260;25428;-60
2023/08/28 11:14:38;;;;;;;2.80;2.40;;;24.50;63.10;;;;;;222774;1262;22527;-59
2023/08/28 11:20:35;;;;;;;2.30;2.00;;;24.30;63.70;;;;;;221822;1270;24042;-60
2023/08/28 11:25:41;;;;;;;2.80;2.10;;;24.40;63.20;;;;;;221456;1270;25307;-59
2023/08/28 11:30:45;;;;;;;4.50;2.20;;;24.30;63.20;;;;;;221668;1270;22616;-61
2023/08/28 11:35:48;;;;;;;2.50;2.30;;;24.40;62.80;;;;;;221902;1268;25477;-61
2023/08/28 11:40:59;;;;;;;2.40;2.20;;;24.50;62.40;;;;;;222342;1268;22511;-57
2023/08/28 11:46:03;;;;;;;2.10;2.00;;;24.40;62.70;;;;;;222700;1268;24250;-71
2023/08/28 11:51:08;;;;;;;3.70;2.10;;;24.50;62.50;;;;;;222768;1262;22653;-74
2023/08/28 11:56:12;;;;;;;2.30;1.90;;;24.50;62.30;;;;;;222545;1260;22633;-68
2023/08/28 12:01:16;;;;;;;2.20;2.00;;;24.50;62.50;;;;;;222688;1256;25374;-65
2023/08/28 12:06:20;;;;;;;3.70;2.50;;;24.30;62.70;;;;;;222600;1256;25439;-68
2023/08/28 12:11:23;;;;;;;4.40;2.40;;;24.20;63.10;;;;;;222303;1263;22770;-68
2023/08/28 12:16:27;;;;;;;4.10;2.10;;;24.30;63.10;;;;;;222285;1246;208425;-68
2023/08/28 12:21:36;;;;;;;3.20;1.90;;;24.40;62.80;;;;;;222692;1266;22638;-69
2023/08/28 12:26:43;;;;;;;3.30;2.20;;;24.40;63.20;;;;;;222660;1268;24234;-69
2023/08/28 12:31:50;;;;;;;2.50;2.20;;;24.50;62.40;;;;;;222526;1266;25271;-66
2023/08/28 12:37:09;;;;;;;2.40;2.20;;;24.30;62.70;;;;;;222398;1252;22652;-62
2023/08/28 12:42:14;;;;;;;3.90;2.00;;;24.20;63.10;;;;;;222610;1259;23418;-63
2023/08/28 12:47:31;;;;;;;2.00;1.90;;;24.40;62.90;;;;;;222535;1263;22519;-61
2023/08/28 12:52:46;;;;;;;2.20;1.90;;;24.50;63.40;;;;;;222679;1263;24231;-59
2023/08/28 12:57:49;;;;;;;3.90;1.60;;;24.60;62.70;;;;;;222442;1268;24236;-55
2023/08/28 13:02:54;;;;;;;2.40;2.00;;;24.50;63.40;;;;;;222395;1262;22564;-57
2023/08/28 13:08:04;;;;;;;2.30;2.10;;;24.70;63.20;;;;;;222580;1260;22567;-57
2023/08/28 13:13:09;;;;;;;3.70;1.90;;;24.70;63.40;;;;;;222505;1266;25261;-57
2023/08/28 13:18:14;;;;;;;3.10;2.10;;;24.70;63.20;;;;;;222361;1262;23174;-58
2023/08/28 13:23:21;;;;;;;8.20;2.00;;;24.70;63.40;;;;;;222358;1264;23112;-57
2023/08/28 13:28:28;;;;;;;7.20;2.00;;;24.60;63.80;;;;;;222221;1264;22771;-59
2023/08/28 13:33:30;;;;;;;7.60;2.10;;;24.60;64.30;;;;;;222360;1256;22510;-59
2023/08/28 13:38:36;;;;;;;2.50;1.70;;;24.70;64.40;;;;;;222188;1260;24179;-55
2023/08/28 13:43:47;;;;;;;1.90;1.70;;;24.80;63.80;;;;;;224146;1266;24234;-55
2023/08/28 13:48:51;;;;;;;1.90;1.80;;;25.10;63.00;;;;;;223896;1266;22521;-57
2023/08/28 13:53:53;;;;;;;2.50;2.30;;;25.10;63.00;;;;;;222698;1266;25475;-52
2023/08/28 13:58:57;;;;;;;2.10;1.90;;;25.00;62.80;;;;;;222480;1263;22570;-55
2023/08/28 14:04:01;;;;;;;1.90;1.80;;;25.10;63.10;;;;;;222435;1254;25132;-57
2023/08/28 14:09:04;;;;;;;2.30;1.70;;;25.10;62.70;;;;;;222769;1268;24603;-54
2023/08/28 14:14:07;;;;;;;1.90;1.80;;;25.10;62.60;;;;;;222598;1263;24217;-55
2023/08/28 14:19:10;;;;;;;4.20;1.70;;;25.10;62.70;;;;;;222408;1263;23893;-56
2023/08/28 14:24:13;;;;;;;2.40;1.60;;;25.00;62.70;;;;;;222623;1263;23931;-55
2023/08/28 14:29:16;;;;;;;3.60;2.00;;;25.10;62.70;;;;;;222789;1266;25509;-53
2023/08/28 14:34:20;;;;;;;1.80;1.70;;;25.10;62.80;;;;;;222223;1268;24045;-54
2023/08/28 14:39:25;;;;;;;2.20;2.00;;;25.10;62.60;;;;;;223006;1264;22517;-56
2023/08/28 14:44:36;;;;;;;2.70;1.60;;;25.10;62.70;;;;;;222120;1264;22575;-56
2023/08/28 14:49:41;;;;;;;2.10;1.80;;;25.10;62.50;;;;;;222833;1268;25428;-54
2023/08/28 14:54:46;;;;;;;2.10;1.90;;;25.10;62.00;;;;;;222365;1263;22538;-54
2023/08/28 14:59:53;;;;;;;3.20;1.80;;;24.90;62.70;;;;;;222116;1256;25331;-55
2023/08/28 15:04:56;;;;;;;3.50;1.60;;;24.90;61.90;;;;;;222335;1259;22690;-55
2023/08/28 15:10:08;;;;;;;1.90;1.70;;;24.90;62.50;;;;;;229099;1263;22631;-56
2023/08/28 15:15:21;;;;;;;2.00;1.60;;;25.20;61.80;;;;;;222441;1266;25249;-56
2023/08/28 15:20:24;;;;;;;2.20;1.50;;;25.30;61.80;;;;;;222532;1266;22870;-56
2023/08/28 15:25:27;;;;;;;2.30;1.40;;;25.10;62.10;;;;;;222432;1268;23919;-57
2023/08/28 15:30:30;;;;;;;5.70;1.80;;;25.10;62.40;;;;;;222751;1268;22550;-57
2023/08/28 15:35:35;;;;;;;3.20;1.70;;;25.00;62.70;;;;;;222244;1266;24710;-57
2023/08/28 15:40:38;;;;;;;1.90;1.50;;;24.90;63.10;;;;;;222718;1263;25225;-57
2023/08/28 15:46:02;;;;;;;3.90;1.70;;;24.80;63.20;;;;;;222635;1266;23162;-58
2023/08/28 15:51:05;;;;;;;1.90;1.80;;;24.90;62.90;;;;;;222412;1263;25343;-58
2023/08/28 15:56:08;;;;;;;8.10;2.80;;;24.80;62.70;;;;;;222463;1262;25334;-58
2023/08/28 16:01:12;;;;;;;6.10;2.70;;;24.70;62.40;;;;;;222559;1257;24264;-58
2023/08/28 16:06:15;;;;;;;18.80;2.70;;;24.60;61.70;;;;;;222708;1268;22826;-59
2023/08/28 16:11:19;;;;;;;9.90;2.10;;;24.70;62.10;;;;;;222390;1268;23045;-58
2023/08/28 16:16:24;;;;;;;4.80;2.20;;;24.70;62.50;;;;;;222987;1266;22578;-55
2023/08/28 16:21:28;;;;;;;4.80;2.00;;;24.80;63.00;;;;;;222396;1269;24055;-58
2023/08/28 16:26:32;;;;;;;4.90;1.30;;;25.00;63.40;;;;;;222434;1266;25329;-59
2023/08/28 16:31:37;;;;;;;4.40;1.70;;;25.00;63.30;;;;;;222516;1264;22511;-57
2023/08/28 16:36:40;;;;;;;3.40;1.80;;;25.10;63.00;;;;;;222284;1263;25405;-58
2023/08/28 16:41:45;;;;;;;8.20;1.80;;;25.10;63.30;;;;;;222644;1258;25325;-56
2023/08/28 16:46:49;;;;;;;3.90;1.50;;;25.10;63.30;;;;;;222563;1260;22763;-57
2023/08/28 16:51:52;;;;;;;2.10;1.50;;;25.10;63.80;;;;;;222276;1261;22521;-60
2023/08/28 16:56:55;;;;;;;4.60;1.60;;;25.00;63.90;;;;;;222365;1263;25294;-57
2023/08/28 17:01:58;;;;;;;4.50;1.50;;;25.10;63.60;;;;;;221859;1266;25396;-56
2023/08/28 17:07:02;;;;;;;5.50;2.00;;;25.00;63.90;;;;;;222847;1266;24255;-56
2023/08/28 17:12:06;;;;;;;4.30;1.80;;;25.00;64.00;;;;;;222266;1266;24193;-57
2023/08/28 17:17:09;;;;;;;7.20;2.00;;;25.10;63.90;;;;;;222277;1268;22633;-59
2023/08/28 17:22:15;;;;;;;4.60;1.50;;;25.10;64.10;;;;;;222543;1268;25290;-57
2023/08/28 17:27:21;;;;;;;4.00;1.60;;;25.00;64.30;;;;;;222353;1268;22528;-57
2023/08/28 17:32:28;;;;;;;5.30;1.80;;;25.00;64.80;;;;;;222639;1263;22521;-57
2023/08/28 17:37:32;;;;;;;2.50;1.60;;;25.00;65.00;;;;;;222452;1266;22483;-59
2023/08/28 17:42:36;;;;;;;7.80;1.80;;;25.00;65.50;;;;;;222907;1266;24221;-60
2023/08/28 17:47:41;;;;;;;3.40;1.90;;;25.00;65.20;;;;;;222320;1265;22525;-57
2023/08/28 17:52:45;;;;;;;4.20;1.50;;;25.00;65.50;;;;;;222582;1268;23015;-57
2023/08/28 17:57:49;;;;;;;3.90;1.40;;;25.10;64.80;;;;;;222454;1268;22561;-57
2023/08/28 18:02:54;;;;;;;10.50;1.80;;;25.10;65.10;;;;;;222994;1250;25327;-59
2023/08/28 18:08:09;;;;;;;2.90;2.00;;;25.00;65.10;;;;;;222604;1268;24174;-58
2023/08/28 18:13:13;;;;;;;4.90;1.60;;;25.00;65.20;;;;;;222817;1261;22520;-60
2023/08/28 18:18:17;;;;;;;2.80;1.80;;;25.00;65.50;;;;;;222849;1266;23925;-58
2023/08/28 18:23:23;;;;;;;4.70;1.50;;;25.00;65.10;;;;;;222429;1246;24203;-58
2023/08/28 18:28:32;;;;;;;10.60;1.50;;;25.00;65.10;;;;;;222453;1263;22507;-57
2023/08/28 18:33:37;;;;;;;2.00;1.50;;;25.00;65.10;;;;;;222473;1266;22519;-58
2023/08/28 18:38:41;;;;;;;1.70;1.30;;;25.00;65.40;;;;;;222334;1263;22543;-58
2023/08/28 18:43:45;;;;;;;4.50;1.40;;;25.00;65.10;;;;;;222022;1269;23503;-58
2023/08/28 18:48:50;;;;;;;2.90;1.50;;;25.00;65.10;;;;;;222715;1259;22510;-59
2023/08/28 18:53:57;;;;;;;4.80;1.50;;;25.00;65.00;;;;;;222526;1263;24056;-58
2023/08/28 18:59:01;;;;;;;2.20;1.20;;;25.00;65.00;;;;;;222536;1269;22662;-61
2023/08/28 19:04:07;;;;;;;2.70;1.60;;;25.00;65.40;;;;;;223096;1263;22561;-58
2023/08/28 19:09:13;;;;;;;4.90;1.60;;;25.00;64.70;;;;;;222711;1268;22640;-58
2023/08/28 19:14:17;;;;;;;3.60;1.30;;;25.00;65.00;;;;;;222245;1260;22518;-59
2023/08/28 19:19:23;;;;;;;3.00;1.20;;;25.10;64.90;;;;;;222579;1256;25469;-60
2023/08/28 19:24:28;;;;;;;5.30;1.60;;;25.30;64.30;;;;;;222497;1263;22607;-57
2023/08/28 19:29:32;;;;;;;2.90;1.50;;;25.30;65.00;;;;;;222594;1254;25281;-57
2023/08/28 19:34:37;;;;;;;7.60;4.60;;;25.10;64.70;;;;;;222379;1266;23996;-58
2023/08/28 19:39:45;;;;;;;7.40;5.20;;;25.00;66.00;;;;;;222326;1268;22524;-58
2023/08/28 19:44:49;;;;;;;5.70;3.70;;;25.10;67.40;;;;;;222639;1254;22522;-58
2023/08/28 19:49:55;;;;;;;9.20;3.80;;;25.10;66.50;;;;;;222280;1261;23102;-57
2023/08/28 19:54:59;;;;;;;5.70;3.20;;;25.10;66.50;;;;;;222412;1268;25426;-58
2023/08/28 20:00:09;;;;;;;11.70;2.80;;;25.10;66.10;;;;;;222926;1261;25362;-61
2023/08/28 20:05:39;;;;;;;19.20;3.20;;;25.10;66.40;;;;;;222610;1261;22567;-57
2023/08/28 20:10:43;;;;;;;15.00;4.10;;;25.30;66.00;;;;;;222329;1266;27681;-58
2023/08/28 20:15:50;;;;;;;10.90;2.50;;;25.30;65.90;;;;;;224490;1263;22596;-58
2023/08/28 20:20:54;;;;;;;8.40;3.20;;;25.20;65.30;;;;;;222611;1267;24184;-58
2023/08/28 20:25:58;;;;;;;5.00;2.30;;;25.10;65.40;;;;;;222961;1261;22517;-58
2023/08/28 20:31:03;;;;;;;8.00;2.70;;;25.10;64.70;;;;;;222469;1260;24186;-58
2023/08/28 20:36:08;;;;;;;8.40;2.40;;;25.10;64.60;;;;;;222647;1263;22553;-58
2023/08/28 20:41:15;;;;;;;5.70;2.30;;;25.20;64.70;;;;;;222827;1266;24132;-58
2023/08/28 20:46:20;;;;;;;5.20;2.30;;;25.20;63.90;;;;;;222933;1263;22531;-55
2023/08/28 20:51:23;;;;;;;2.70;1.90;;;25.00;65.20;;;;;;222852;1268;22644;-56
2023/08/28 20:56:26;;;;;;;3.20;2.40;;;25.10;64.10;;;;;;222432;1268;22757;-58
2023/08/28 21:01:36;;;;;;;4.30;2.30;;;25.10;64.40;;;;;;222726;1261;22588;-55
2023/08/28 21:06:41;;;;;;;9.50;2.20;;;25.00;64.90;;;;;;222629;1259;24593;-58
2023/08/28 21:11:46;;;;;;;5.70;2.20;;;25.00;64.70;;;;;;222512;1268;23928;-54
2023/08/28 21:16:57;;;;;;;5.70;2.50;;;25.00;64.50;;;;;;222912;1267;22636;-57
2023/08/28 21:22:08;;;;;;;9.30;2.70;;;25.10;64.70;;;;;;222758;1264;24212;-58
2023/08/28 21:27:15;;;;;;;5.90;2.60;;;25.10;64.50;;;;;;222162;1266;22604;-58
2023/08/28 21:32:22;;;;;;;7.70;2.60;;;24.90;63.50;;;;;;222265;1264;24849;-52
2023/08/28 21:37:32;;;;;;;6.60;2.50;;;24.80;63.30;;;;;;222531;1268;25318;-54
2023/08/28 21:42:36;;;;;;;6.80;2.20;;;24.90;62.00;;;;;;222465;1247;22530;-53
2023/08/28 21:47:38;;;;;;;3.10;2.70;;;24.70;61.40;;;;;;222505;1263;22521;-53
2023/08/28 21:53:00;;;;;;;6.50;2.30;;;24.60;61.00;;;;;;222524;1260;22595;-64
2023/08/28 21:58:21;;;;;;;;;;;24.60;61.20;;;;;;222490;1254;24026;-63
2023/08/28 22:03:43;;;;;;;7.60;2.50;;;24.60;61.10;;;;;;222743;1267;22526;-66
2023/08/28 22:09:04;;;;;;;2.30;1.90;;;24.50;61.40;;;;;;222376;1259;22533;-67
2023/08/28 22:14:26;;;;;;;3.00;1.60;;;24.50;60.50;;;;;;222306;1266;24477;-64
2023/08/28 22:19:32;;;;;;;3.70;1.40;;;24.30;60.50;;;;;;222658;1263;23902;-65
2023/08/28 22:24:36;;;;;;;2.10;1.50;;;24.30;59.40;;;;;;222470;1254;22530;-65
2023/08/28 22:29:39;;;;;;;1.40;1.20;;;24.20;59.10;;;;;;222456;1254;22623;-64
2023/08/28 22:34:41;;;;;;;1.30;1.20;;;24.20;58.70;;;;;;222625;1260;24706;-64
2023/08/28 22:39:44;;;;;;;2.60;1.30;;;24.20;58.40;;;;;;222351;1264;25359;-65
2023/08/28 22:44:49;;;;;;;1.40;1.30;;;24.30;58.10;;;;;;222549;1263;24001;-65
2023/08/28 22:49:52;;;;;;;1.40;1.00;;;24.20;58.00;;;;;;222717;1253;22656;-64
2023/08/28 22:54:55;;;;;;;3.10;1.40;;;24.20;57.80;;;;;;222420;1248;25350;-63
2023/08/28 22:59:58;;;;;;;3.30;1.60;;;23.90;58.00;;;;;;223225;1267;25426;-62
2023/08/28 23:05:11;;;;;;;1.50;1.40;;;24.00;57.60;;;;;;224860;1264;22625;-63
2023/08/28 23:10:14;;;;;;;1.80;1.60;;;23.80;57.80;;;;;;222621;1268;24205;-65
2023/08/28 23:15:28;;;;;;;1.40;1.30;;;23.80;57.80;;;;;;222368;1268;22551;-64
2023/08/28 23:20:35;;;;;;;1.90;1.00;;;23.90;58.50;;;;;;222756;1263;22515;-64
2023/08/28 23:25:37;;;;;;;1.40;1.10;;;24.10;58.20;;;;;;222710;1263;22622;-59
2023/08/28 23:30:40;;;;;;;3.00;1.20;;;24.20;58.00;;;;;;222708;1264;24199;-57
2023/08/28 23:35:48;;;;;;;3.30;0.90;;;24.20;58.30;;;;;;222379;1257;22534;-58
2023/08/28 23:40:56;;;;;;;2.50;1.10;;;24.30;58.60;;;;;;222376;1261;24274;-59
2023/08/28 23:45:59;;;;;;;1.60;0.90;;;24.30;58.60;;;;;;222725;1260;24319;-59
2023/08/28 23:51:03;;;;;;;1.70;1.00;;;24.30;59.00;;;;;;222296;1267;22756;-60
2023/08/28 23:56:06;;;;;;;1.10;1.10;;;24.40;59.00;;;;;;222206;1263;22518;-57
